Time;durP1;ratioP1;P1;durP2;ratioP2;P2;SDS_P1;SDS_P2;PMS_P1;PMS_P2;Temp;Humidity;BMP_temperature;BMP_pressure;BME280_temperature;BME280_humidity;BME280_pressure;Samples;Min_cycle;Max_cycle;Signal;HPM_P1;HPM_P2
2023/12/14 00:00:55;;;;;;;12.75;6.88;;;;;;;6.04;100.00;100739.34;4982235;28;20105;-91
2023/12/14 00:03:20;;;;;;;12.95;7.63;;;;;;;6.01;100.00;100742.81;4976776;28;20124;-90
2023/12/14 00:05:45;;;;;;;12.37;7.03;;;;;;;6.01;100.00;100747.09;4977922;28;20484;-91
2023/12/14 00:08:11;;;;;;;12.23;7.37;;;;;;;5.99;100.00;100753.97;4976638;28;20046;-91
2023/12/14 00:10:36;;;;;;;11.52;6.72;;;;;;;6.01;100.00;100768.63;4964299;28;20026;-90
2023/12/14 00:13:04;;;;;;;12.52;7.25;;;;;;;6.02;100.00;100775.53;4983988;28;20030;-90
2023/12/14 00:15:29;;;;;;;12.10;7.07;;;;;;;6.04;100.00;100775.50;4969743;28;20126;-91
2023/12/14 00:17:55;;;;;;;14.52;8.25;;;;;;;6.04;100.00;100791.00;4973379;28;20185;-91
2023/12/14 00:20:20;;;;;;;12.70;7.10;;;;;;;6.04;100.00;100794.44;4967533;28;20034;-91
2023/12/14 00:22:45;;;;;;;14.43;8.18;;;;;;;6.03;100.00;100795.31;4975524;28;20217;-91
2023/12/14 00:25:11;;;;;;;14.18;7.82;;;;;;;6.01;100.00;100809.97;4962002;28;20034;-91
2023/12/14 00:27:36;;;;;;;16.83;9.32;;;;;;;6.03;100.00;100812.53;4963600;28;20022;-92
2023/12/14 00:30:02;;;;;;;15.40;9.02;;;;;;;5.98;100.00;100811.69;4983362;28;20423;-90
2023/12/14 00:32:27;;;;;;;13.95;7.93;;;;;;;5.98;100.00;100824.59;4960568;28;20030;-91
2023/12/14 00:34:52;;;;;;;17.17;9.02;;;;;;;5.90;100.00;100830.66;4980174;28;20053;-90
2023/12/14 00:37:18;;;;;;;14.73;7.93;;;;;;;5.97;100.00;100834.06;4978558;28;20337;-91
2023/12/14 00:39:43;;;;;;;17.08;8.90;;;;;;;5.90;100.00;100838.41;4965090;28;20034;-91
2023/12/14 00:42:08;;;;;;;15.45;8.27;;;;;;;5.85;100.00;100841.88;4982668;28;20030;-91
2023/12/14 00:44:34;;;;;;;16.75;9.27;;;;;;;5.77;100.00;100854.84;4965790;28;20378;-91
2023/12/14 00:47:00;;;;;;;14.85;8.50;;;;;;;5.78;100.00;100859.13;4967085;28;20492;-91
2023/12/14 00:49:27;;;;;;;15.35;8.32;;;;;;;5.74;100.00;100870.34;4966556;28;20494;-91
2023/12/14 00:51:53;;;;;;;15.00;7.28;;;;;;;5.78;100.00;100872.88;4963027;28;20167;-92
2023/12/14 00:54:18;;;;;;;15.48;8.07;;;;;;;5.70;100.00;100873.78;4978867;28;20752;-91
2023/12/14 00:56:44;;;;;;;13.82;7.20;;;;;;;5.68;100.00;100878.09;4984010;28;20035;-91
2023/12/14 00:59:09;;;;;;;15.50;8.13;;;;;;;5.65;100.00;100884.16;4959954;28;20455;-91
2023/12/14 01:01:34;;;;;;;15.45;8.30;;;;;;;5.62;100.00;100890.19;4968941;28;20030;-91
2023/12/14 01:04:00;;;;;;;15.13;7.90;;;;;;;5.58;100.00;100893.66;4978378;28;20053;-91
2023/12/14 01:06:25;;;;;;;14.43;7.35;;;;;;;5.57;100.00;100896.22;4961519;28;20042;-91
2023/12/14 01:08:50;;;;;;;15.30;7.43;;;;;;;5.58;100.00;100892.78;4983691;28;20532;-92
2023/12/14 01:11:16;;;;;;;14.57;7.63;;;;;;;5.57;100.00;100901.38;4955704;28;20054;-91
2023/12/14 01:13:41;;;;;;;15.02;7.57;;;;;;;5.55;100.00;100897.97;4983419;28;20125;-91
2023/12/14 01:16:07;;;;;;;13.30;7.13;;;;;;;5.50;100.00;100905.72;4962165;28;20405;-91
2023/12/14 01:18:32;;;;;;;15.88;8.27;;;;;;;5.49;100.00;100905.72;4979097;28;20475;-91
2023/12/14 01:20:58;;;;;;;15.38;8.20;;;;;;;5.49;100.00;100900.56;4961582;28;20465;-91
2023/12/14 01:23:23;;;;;;;14.63;7.90;;;;;;;5.46;100.00;100906.59;4964761;28;20053;-90
2023/12/14 01:25:48;;;;;;;13.77;7.45;;;;;;;5.47;100.00;100910.88;4980859;28;20088;-89
2023/12/14 01:28:14;;;;;;;14.02;7.47;;;;;;;5.45;100.00;100912.63;4962446;28;20366;-90
2023/12/14 01:30:39;;;;;;;13.48;7.55;;;;;;;5.42;100.00;100922.94;4978633;28;20653;-90
2023/12/14 01:33:04;;;;;;;14.60;7.85;;;;;;;5.39;100.00;100925.53;4962919;28;20036;-89
2023/12/14 01:35:30;;;;;;;14.30;7.70;;;;;;;5.37;100.00;100935.88;4971980;28;20026;-89
2023/12/14 01:37:55;;;;;;;11.85;6.78;;;;;;;5.38;100.00;100944.47;4980576;28;20026;-89
2023/12/14 01:40:20;;;;;;;12.00;6.55;;;;;;;5.35;100.00;100954.78;5002818;28;20021;-89
2023/12/14 01:42:46;;;;;;;14.70;7.38;;;;;;;5.38;100.00;100968.53;4990667;28;20067;-89
2023/12/14 01:45:15;;;;;;;12.05;6.78;;;;;;;5.37;100.00;100960.78;4972413;28;20031;-89
2023/12/14 01:47:40;;;;;;;13.60;7.20;;;;;;;5.36;100.00;100966.81;4979097;28;20098;-89
2023/12/14 01:50:06;;;;;;;12.40;7.00;;;;;;;5.38;100.00;100962.50;4959875;28;20502;-89
2023/12/14 01:52:31;;;;;;;14.10;7.50;;;;;;;5.35;100.00;100965.97;4961975;28;20038;-89
2023/12/14 01:54:58;;;;;;;15.32;8.13;;;;;;;5.36;100.00;100969.41;4980760;28;20069;-90
2023/12/14 01:57:24;;;;;;;13.73;7.38;;;;;;;5.33;100.00;100988.34;4978501;28;20026;-89
2023/12/14 01:59:49;;;;;;;14.80;7.78;;;;;;;5.36;100.00;101000.34;4984077;28;20497;-89
2023/12/14 02:02:15;;;;;;;15.48;7.72;;;;;;;5.34;100.00;101002.94;4962272;28;20038;-90
2023/12/14 02:04:40;;;;;;;13.50;6.78;;;;;;;5.32;100.00;101010.66;4982740;28;20049;-89
2023/12/14 02:07:06;;;;;;;13.40;6.93;;;;;;;5.32;100.00;101010.66;4977781;28;20069;-89
2023/12/14 02:09:31;;;;;;;16.42;7.90;;;;;;;5.33;100.00;101006.38;4977007;28;20416;-89
2023/12/14 02:11:56;;;;;;;12.30;6.72;;;;;;;5.34;100.00;101008.09;4980842;28;20034;-89
2023/12/14 02:14:23;;;;;;;14.55;8.05;;;;;;;5.35;100.00;101015.00;4984853;28;20114;-89
2023/12/14 02:16:48;;;;;;;15.50;7.75;;;;;;;5.31;100.00;101019.28;4978188;28;20046;-89
2023/12/14 02:19:14;;;;;;;14.75;8.35;;;;;;;5.31;100.00;101018.44;4985294;28;20026;-89
2023/12/14 02:21:39;;;;;;;16.55;8.15;;;;;;;5.31;100.00;101024.44;4983077;28;21634;-89
2023/12/14 02:24:04;;;;;;;15.45;7.78;;;;;;;5.30;100.00;101025.28;4978169;28;20473;-89
2023/12/14 02:26:30;;;;;;;14.40;7.45;;;;;;;5.29;100.00;101025.31;4974764;28;20082;-90
2023/12/14 02:28:55;;;;;;;15.63;8.30;;;;;;;5.32;100.00;101040.78;4966253;28;20035;-89
2023/12/14 02:31:20;;;;;;;15.00;8.40;;;;;;;5.31;100.00;101050.22;4976331;28;20026;-89
2023/12/14 02:33:46;;;;;;;17.85;8.98;;;;;;;5.34;100.00;101058.81;4966189;28;20062;-89
2023/12/14 02:36:11;;;;;;;16.92;9.00;;;;;;;5.28;100.00;101058.00;4959816;28;20035;-89
2023/12/14 02:38:36;;;;;;;15.43;8.13;;;;;;;5.26;100.00;101072.59;4983408;28;20030;-89
2023/12/14 02:41:02;;;;;;;18.70;10.48;;;;;;;5.28;100.00;101062.28;4984305;28;21309;-89
2023/12/14 02:43:27;;;;;;;16.88;9.50;;;;;;;5.19;100.00;101062.28;4979897;28;20027;-89
2023/12/14 02:45:55;;;;;;;18.00;9.50;;;;;;;5.19;100.00;101062.28;4976885;28;20022;-89
2023/12/14 02:48:20;;;;;;;19.83;9.57;;;;;;;5.15;100.00;101069.16;4980705;28;20141;-89
2023/12/14 02:50:45;;;;;;;19.55;9.48;;;;;;;5.16;100.00;101076.03;4982518;28;20117;-89
2023/12/14 02:53:11;;;;;;;18.25;9.70;;;;;;;5.10;100.00;101076.88;4979399;28;20126;-89
2023/12/14 02:55:36;;;;;;;16.25;8.98;;;;;;;5.07;100.00;101087.19;4979511;28;20490;-89
2023/12/14 02:58:02;;;;;;;21.08;10.15;;;;;;;5.09;100.00;101085.47;4976887;28;20042;-89
2023/12/14 03:00:27;;;;;;;21.90;10.90;;;;;;;5.09;100.00;101092.38;4976054;28;20030;-89
2023/12/14 03:02:52;;;;;;;18.73;10.45;;;;;;;4.99;100.00;101094.94;4962316;28;20398;-89
2023/12/14 03:05:18;;;;;;;18.02;9.88;;;;;;;4.99;100.00;101105.25;4961643;28;20485;-89
2023/12/14 03:07:43;;;;;;;17.77;9.05;;;;;;;4.98;100.00;101103.50;4975850;28;20030;-89
2023/12/14 03:10:09;;;;;;;17.10;8.70;;;;;;;4.96;100.00;101110.38;4965547;28;20073;-89
2023/12/14 03:12:34;;;;;;;17.58;8.98;;;;;;;4.96;100.00;101110.38;4978779;28;20105;-88
2023/12/14 03:14:59;;;;;;;17.13;8.98;;;;;;;4.95;100.00;101116.41;4965190;28;20470;-88
2023/12/14 03:17:25;;;;;;;16.38;8.07;;;;;;;4.94;100.00;101121.56;4981589;28;20564;-89
2023/12/14 03:19:50;;;;;;;15.43;8.23;;;;;;;4.95;100.00;101123.28;4979365;28;20070;-89
2023/12/14 03:22:15;;;;;;;13.83;7.50;;;;;;;4.94;100.00;101125.03;4978180;28;20053;-89
2023/12/14 03:24:42;;;;;;;14.70;8.40;;;;;;;4.89;100.00;101131.00;4966410;28;20026;-89
2023/12/14 03:27:07;;;;;;;14.30;7.87;;;;;;;4.87;100.00;101128.44;4977348;28;20084;-89
2023/12/14 03:29:32;;;;;;;13.75;7.72;;;;;;;4.90;100.00;101136.16;5005618;28;20030;-88
2023/12/14 03:31:58;;;;;;;13.80;7.45;;;;;;;4.94;100.00;101143.06;4979302;28;20031;-89
2023/12/14 03:34:24;;;;;;;14.57;7.80;;;;;;;4.93;100.00;101136.19;4985541;28;20023;-89
2023/12/14 03:36:50;;;;;;;13.43;7.13;;;;;;;4.94;100.00;101137.03;4977055;28;20471;-89
2023/12/14 03:39:16;;;;;;;12.57;6.93;;;;;;;4.93;100.00;101136.19;4977075;28;20028;-89
2023/12/14 03:41:42;;;;;;;12.80;6.63;;;;;;;4.95;100.00;101142.19;4977231;28;20121;-88
2023/12/14 03:44:07;;;;;;;13.20;7.10;;;;;;;4.95;100.00;101138.75;4981734;28;20026;-89
2023/12/14 03:46:34;;;;;;;13.38;7.15;;;;;;;5.03;100.00;101146.50;4977852;28;20402;-90
2023/12/14 03:48:59;;;;;;;16.27;8.88;;;;;;;4.93;100.00;101146.50;4982766;28;20038;-89
2023/12/14 03:51:24;;;;;;;15.97;8.67;;;;;;;4.93;100.00;101155.94;4977990;28;20023;-89
2023/12/14 03:53:50;;;;;;;16.20;9.30;;;;;;;4.92;100.00;101160.25;4979932;28;20022;-89
2023/12/14 03:56:15;;;;;;;16.50;8.93;;;;;;;4.92;100.00;101155.09;4961989;28;20379;-89
2023/12/14 03:58:40;;;;;;;17.05;9.35;;;;;;;4.90;100.00;101169.69;4982697;28;20367;-89
2023/12/14 04:01:06;;;;;;;15.73;8.80;;;;;;;4.90;100.00;101168.81;4962445;28;20486;-88
2023/12/14 04:03:32;;;;;;;17.73;10.00;;;;;;;4.94;100.00;101179.16;4977151;28;20101;-89
2023/12/14 04:05:57;;;;;;;17.63;9.02;;;;;;;4.85;100.00;101174.84;4959589;28;20434;-89
2023/12/14 04:08:22;;;;;;;18.07;9.03;;;;;;;4.86;100.00;101175.69;4980642;28;20026;-89
2023/12/14 04:10:48;;;;;;;16.00;8.73;;;;;;;4.87;100.00;101177.41;4975071;28;20031;-89
2023/12/14 04:13:13;;;;;;;14.47;8.30;;;;;;;4.87;100.00;101177.41;4979597;28;20548;-89
2023/12/14 04:15:38;;;;;;;13.82;8.20;;;;;;;4.84;100.00;101178.28;4958922;28;20035;-89
2023/12/14 04:18:06;;;;;;;14.03;7.97;;;;;;;4.83;100.00;101180.81;4974037;28;20046;-89
2023/12/14 04:20:31;;;;;;;11.10;6.83;;;;;;;4.83;100.00;101180.81;4977145;28;20487;-90
2023/12/14 04:22:57;;;;;;;12.77;7.32;;;;;;;4.82;100.00;101179.09;4977447;28;20019;-89
2023/12/14 04:25:22;;;;;;;12.47;6.80;;;;;;;4.81;100.00;101177.38;4981528;28;20433;-89
2023/12/14 04:27:47;;;;;;;11.83;6.70;;;;;;;4.80;100.00;101181.69;4980721;28;20042;-89
2023/12/14 04:30:13;;;;;;;12.27;7.60;;;;;;;4.78;100.00;101192.84;4959587;28;20026;-89
2023/12/14 04:32:38;;;;;;;12.52;7.20;;;;;;;4.77;100.00;101191.13;4956250;28;20496;-89
2023/12/14 04:35:05;;;;;;;11.90;7.18;;;;;;;4.76;100.00;101195.41;4976538;28;20035;-89
2023/12/14 04:37:30;;;;;;;13.00;7.30;;;;;;;4.76;100.00;101204.88;4978962;28;20106;-89
2023/12/14 04:39:56;;;;;;;14.02;7.90;;;;;;;4.74;100.00;101204.00;4976345;28;20080;-89
2023/12/14 04:42:22;;;;;;;12.75;6.97;;;;;;;4.70;100.00;101216.88;4976420;28;20127;-89
2023/12/14 04:44:47;;;;;;;14.20;7.95;;;;;;;4.71;100.00;101228.91;4977850;28;20466;-90
2023/12/14 04:47:12;;;;;;;12.63;6.90;;;;;;;4.71;100.00;101228.91;4963174;28;20033;-90
2023/12/14 04:49:38;;;;;;;12.90;7.13;;;;;;;4.74;100.00;101237.50;4973379;28;20430;-90
2023/12/14 04:52:04;;;;;;;11.40;6.80;;;;;;;4.75;100.00;101244.38;4980105;28;20525;-89
2023/12/14 04:54:29;;;;;;;11.20;6.47;;;;;;;4.77;100.00;101242.69;4975178;28;20478;-90
2023/12/14 04:56:54;;;;;;;12.43;6.90;;;;;;;4.76;100.00;101248.69;4970051;28;20038;-90
2023/12/14 04:59:20;;;;;;;11.45;6.80;;;;;;;4.76;100.00;101251.25;4979144;28;20033;-89
2023/12/14 05:01:45;;;;;;;11.50;6.82;;;;;;;4.76;100.00;101261.56;4945135;28;20035;-90
2023/12/14 05:04:11;;;;;;;12.52;7.15;;;;;;;4.76;100.00;101259.84;4984859;28;20026;-89
2023/12/14 05:06:38;;;;;;;13.23;7.50;;;;;;;4.76;100.00;101266.72;4958298;28;20031;-89
2023/12/14 05:09:05;;;;;;;12.37;6.97;;;;;;;4.78;100.00;101273.59;4979306;28;21412;-90
2023/12/14 05:11:30;;;;;;;11.60;7.00;;;;;;;4.78;100.00;101272.75;4983102;28;20462;-88
2023/12/14 05:13:56;;;;;;;12.10;7.28;;;;;;;4.77;100.00;101274.47;4994150;28;20045;-90
2023/12/14 05:16:26;;;;;;;10.88;6.07;;;;;;;4.80;100.00;101282.22;4981361;28;20486;-90
2023/12/14 05:18:52;;;;;;;12.97;7.00;;;;;;;4.78;100.00;101286.50;4979663;28;20026;-89
2023/12/14 05:21:17;;;;;;;12.13;7.03;;;;;;;4.76;100.00;101297.66;4979833;28;20033;-90
2023/12/14 05:23:43;;;;;;;11.60;6.80;;;;;;;4.73;100.00;101303.66;4971004;28;20653;-90
2023/12/14 05:26:08;;;;;;;11.90;7.03;;;;;;;4.71;100.00;101311.38;4976949;28;20046;-90
2023/12/14 05:28:34;;;;;;;11.77;7.07;;;;;;;4.73;100.00;101313.09;4972831;28;20038;-90
2023/12/14 05:31:00;;;;;;;12.85;7.97;;;;;;;4.70;100.00;101324.25;4975227;28;20039;-90
2023/12/14 05:33:25;;;;;;;12.10;6.95;;;;;;;4.69;100.00;101323.38;4976341;28;20389;-89
2023/12/14 05:35:51;;;;;;;13.35;7.43;;;;;;;4.68;100.00;101326.81;4957600;28;20081;-90
2023/12/14 05:38:16;;;;;;;12.25;7.22;;;;;;;4.69;100.00;101327.69;4970770;28;20039;-91
2023/12/14 05:40:42;;;;;;;12.50;7.17;;;;;;;4.68;100.00;101342.28;4959700;28;20082;-89
2023/12/14 05:43:07;;;;;;;11.75;6.57;;;;;;;4.70;100.00;101350.88;4975209;28;20054;-89
2023/12/14 05:45:33;;;;;;;13.17;7.93;;;;;;;4.71;100.00;101352.63;4974802;28;20510;-90
2023/12/14 05:47:58;;;;;;;12.93;7.90;;;;;;;4.70;100.00;101360.31;4968063;28;20414;-90
2023/12/14 05:50:23;;;;;;;12.57;7.43;;;;;;;4.70;100.00;101363.78;4958204;28;20061;-90
2023/12/14 05:52:49;;;;;;;12.97;7.40;;;;;;;4.73;100.00;101364.66;4975553;28;20122;-90
2023/12/14 05:55:14;;;;;;;13.47;7.63;;;;;;;4.75;100.00;101373.25;4957956;28;20037;-90
2023/12/14 05:57:40;;;;;;;13.37;7.83;;;;;;;4.75;100.00;101373.25;4977144;28;20094;-90
2023/12/14 06:00:07;;;;;;;13.00;7.73;;;;;;;4.77;100.00;101387.03;4952286;28;20105;-90
2023/12/14 06:02:32;;;;;;;13.50;7.83;;;;;;;4.76;100.00;101395.63;4960910;28;20022;-90
2023/12/14 06:04:58;;;;;;;12.27;7.20;;;;;;;4.77;100.00;101402.50;4972659;28;20033;-91
2023/12/14 06:07:24;;;;;;;14.57;8.17;;;;;;;4.77;100.00;101405.06;4974451;28;20035;-90
2023/12/14 06:09:49;;;;;;;12.30;7.67;;;;;;;4.77;100.00;101405.06;4974941;28;20105;-90
2023/12/14 06:12:15;;;;;;;11.53;7.10;;;;;;;4.77;100.00;101405.91;4976898;28;20058;-89
2023/12/14 06:14:40;;;;;;;13.25;7.80;;;;;;;4.80;100.00;101410.22;4977360;28;20042;-90
2023/12/14 06:17:05;;;;;;;13.30;8.03;;;;;;;4.80;100.00;101413.69;4969746;28;20035;-90
2023/12/14 06:19:32;;;;;;;15.32;8.05;;;;;;;4.81;100.00;101415.41;4984663;28;20026;-90
2023/12/14 06:21:57;;;;;;;15.37;8.30;;;;;;;4.80;100.00;101417.97;4969530;28;20031;-91
2023/12/14 06:24:22;;;;;;;13.95;8.07;;;;;;;4.78;100.00;101419.69;4981947;28;20026;-91
2023/12/14 06:26:48;;;;;;;12.93;7.67;;;;;;;4.78;100.00;101414.53;4969810;28;20031;-91
2023/12/14 06:29:13;;;;;;;13.23;8.00;;;;;;;4.81;100.00;101430.00;4976524;28;20035;-89
2023/12/14 06:31:39;;;;;;;13.85;8.38;;;;;;;4.81;100.00;101430.88;4973691;28;20481;-90
2023/12/14 06:34:05;;;;;;;12.55;7.45;;;;;;;4.83;100.00;101436.03;4982154;28;20034;-91
2023/12/14 06:36:31;;;;;;;14.27;7.95;;;;;;;4.83;100.00;101446.34;4972956;28;20021;-89
2023/12/14 06:38:58;;;;;;;11.85;7.30;;;;;;;4.85;100.00;101447.22;4987319;28;20026;-90
2023/12/14 06:41:24;;;;;;;13.00;7.35;;;;;;;4.80;100.00;101456.63;4970303;28;20479;-91
2023/12/14 06:43:50;;;;;;;11.90;7.10;;;;;;;4.79;100.00;101460.06;4981019;28;20054;-91
2023/12/14 06:46:15;;;;;;;12.45;7.43;;;;;;;4.78;100.00;101466.94;4958903;28;20618;-91
2023/12/14 06:48:41;;;;;;;11.85;6.95;;;;;;;4.80;100.00;101474.66;4979994;28;20046;-91
2023/12/14 06:51:07;;;;;;;12.55;7.60;;;;;;;4.78;100.00;101468.66;4988928;28;20695;-90
2023/12/14 06:53:33;;;;;;;12.85;7.45;;;;;;;4.77;100.00;101464.38;4973952;28;20032;-90
2023/12/14 06:55:59;;;;;;;13.90;8.40;;;;;;;4.78;100.00;101460.94;4984674;28;20102;-89
2023/12/14 06:58:24;;;;;;;12.43;7.13;;;;;;;4.80;100.00;101466.94;4984748;28;20102;-90
2023/12/14 07:00:49;;;;;;;11.98;7.25;;;;;;;4.79;100.00;101471.25;4983523;28;20105;-91
2023/12/14 07:03:15;;;;;;;13.85;7.38;;;;;;;4.76;100.00;101473.78;4982055;28;20026;-91
2023/12/14 07:05:41;;;;;;;12.30;7.45;;;;;;;4.77;100.00;101477.25;4982290;28;20470;-91
2023/12/14 07:08:06;;;;;;;13.38;7.22;;;;;;;4.80;100.00;101484.97;4982372;28;20019;-90
2023/12/14 07:10:32;;;;;;;12.80;7.38;;;;;;;4.79;100.00;101491.88;4964141;28;20074;-90
2023/12/14 07:12:57;;;;;;;13.20;7.70;;;;;;;4.78;100.00;101491.88;4979941;28;20057;-90
2023/12/14 07:15:22;;;;;;;11.52;7.15;;;;;;;4.79;100.00;101496.16;4985102;28;20042;-90
2023/12/14 07:17:48;;;;;;;12.80;7.68;;;;;;;4.79;100.00;101504.75;4995049;28;20039;-90
2023/12/14 07:20:13;;;;;;;11.80;6.95;;;;;;;4.79;100.00;101509.03;5011318;28;20054;-90
2023/12/14 07:22:38;;;;;;;13.43;7.32;;;;;;;4.80;100.00;101515.91;4991967;28;20030;-90
2023/12/14 07:25:04;;;;;;;13.38;7.28;;;;;;;4.80;100.00;101515.91;4988555;28;20469;-90
2023/12/14 07:27:29;;;;;;;13.25;7.50;;;;;;;4.78;100.00;101526.22;4979930;28;20110;-90
2023/12/14 07:29:55;;;;;;;11.95;7.15;;;;;;;4.80;100.00;101529.69;4984753;28;20098;-91
2023/12/14 07:32:21;;;;;;;12.63;7.28;;;;;;;4.78;100.00;101538.28;4957625;28;20023;-89
2023/12/14 07:34:46;;;;;;;11.00;6.85;;;;;;;4.77;100.00;101546.84;4982463;28;20153;-91
2023/12/14 07:37:12;;;;;;;11.60;6.45;;;;;;;4.76;100.00;101555.44;4971192;28;20105;-91
2023/12/14 07:39:37;;;;;;;12.07;6.88;;;;;;;4.76;100.00;101555.44;4975408;28;20316;-91
2023/12/14 07:42:03;;;;;;;11.43;7.03;;;;;;;4.75;100.00;101564.84;4975711;28;20095;-90
2023/12/14 07:44:29;;;;;;;13.10;7.53;;;;;;;4.73;100.00;101563.97;4963489;28;20113;-90
2023/12/14 07:46:56;;;;;;;12.98;7.53;;;;;;;4.70;100.00;101562.25;4982167;28;20034;-90
2023/12/14 07:49:23;;;;;;;12.60;7.13;;;;;;;4.69;100.00;101560.50;4982218;28;20053;-90
2023/12/14 07:51:48;;;;;;;11.15;6.22;;;;;;;4.70;100.00;101567.41;4986092;28;20030;-90
2023/12/14 07:54:14;;;;;;;11.38;6.90;;;;;;;4.69;100.00;101573.41;4964902;28;20485;-90
2023/12/14 07:56:39;;;;;;;12.52;6.30;;;;;;;4.70;100.00;101580.28;4989990;28;20076;-91
2023/12/14 07:59:07;;;;;;;12.15;6.25;;;;;;;4.70;100.00;101582.88;4985756;28;20057;-90
2023/12/14 08:01:33;;;;;;;11.32;6.88;;;;;;;4.71;100.00;101586.28;4975798;28;20023;-91
2023/12/14 08:03:58;;;;;;;10.60;6.18;;;;;;;4.70;100.00;101590.59;4981528;28;20389;-91
2023/12/14 08:06:23;;;;;;;11.98;6.53;;;;;;;4.70;100.00;101600.91;4981076;28;20033;-91
2023/12/14 08:08:49;;;;;;;12.55;6.40;;;;;;;4.68;100.00;101602.59;4978632;28;20084;-90
2023/12/14 08:11:14;;;;;;;9.63;5.53;;;;;;;4.69;100.00;101612.06;4960158;28;20043;-90
2023/12/14 08:13:40;;;;;;;11.05;6.38;;;;;;;4.73;100.00;101612.94;4964738;28;20030;-91
2023/12/14 08:16:06;;;;;;;10.15;6.13;;;;;;;4.67;100.00;101616.34;4966027;28;20025;-91
2023/12/14 08:18:32;;;;;;;14.48;7.20;;;;;;;4.67;100.00;101616.34;4967097;28;20131;-91
2023/12/14 08:20:57;;;;;;;10.95;6.25;;;;;;;4.68;100.00;101625.78;4986273;28;20489;-90
2023/12/14 08:23:23;;;;;;;11.10;6.50;;;;;;;4.69;100.00;101627.53;4961411;28;20030;-90
2023/12/14 08:25:48;;;;;;;9.75;5.85;;;;;;;4.71;100.00;101635.25;4961087;28;20118;-91
2023/12/14 08:28:14;;;;;;;11.35;5.68;;;;;;;4.70;100.00;101638.69;4976658;28;20041;-91
2023/12/14 08:30:39;;;;;;;10.77;5.90;;;;;;;4.73;100.00;101643.03;4982271;28;20026;-91
2023/12/14 08:33:05;;;;;;;9.73;5.75;;;;;;;4.70;100.00;101649.88;4980789;28;20108;-91
2023/12/14 08:35:30;;;;;;;10.82;5.80;;;;;;;4.68;100.00;101641.25;4979949;28;20056;-92
2023/12/14 08:37:56;;;;;;;9.38;5.78;;;;;;;4.69;100.00;101645.56;4973851;28;20077;-91
2023/12/14 08:40:21;;;;;;;10.38;5.53;;;;;;;4.69;100.00;101653.31;4967009;28;20038;-90
2023/12/14 08:42:47;;;;;;;9.60;5.43;;;;;;;4.70;100.00;101655.03;4981973;28;20029;-91
2023/12/14 08:45:12;;;;;;;9.48;5.53;;;;;;;4.70;100.00;101659.31;4971650;28;20380;-91
2023/12/14 08:47:38;;;;;;;9.05;5.63;;;;;;;4.69;100.00;101667.91;4976326;28;20031;-90
2023/12/14 08:50:04;;;;;;;9.77;5.47;;;;;;;4.70;100.00;101672.19;4953384;28;20050;-91
2023/12/14 08:52:30;;;;;;;9.27;5.60;;;;;;;4.68;100.00;101682.50;4975341;28;20026;-91
2023/12/14 08:54:55;;;;;;;9.88;5.25;;;;;;;4.66;100.00;101681.63;4982023;28;20525;-90
2023/12/14 08:57:21;;;;;;;9.40;5.20;;;;;;;4.67;100.00;101677.34;4976120;28;20058;-91
2023/12/14 08:59:46;;;;;;;9.18;5.38;;;;;;;4.67;100.00;101695.38;4982578;28;20504;-91
2023/12/14 09:02:12;;;;;;;11.00;5.80;;;;;;;4.67;100.00;101701.38;4963739;28;20081;-90
2023/12/14 09:04:37;;;;;;;8.95;5.47;;;;;;;4.64;100.00;101710.81;4966207;28;20018;-91
2023/12/14 09:07:03;;;;;;;10.25;5.32;;;;;;;4.60;100.00;101712.47;4964373;28;20019;-91
2023/12/14 09:09:29;;;;;;;9.73;4.90;;;;;;;4.55;100.00;101701.25;4987380;28;20026;-91
2023/12/14 09:11:54;;;;;;;10.15;5.43;;;;;;;4.53;100.00;101703.78;4965629;28;20030;-90
2023/12/14 09:14:20;;;;;;;9.00;5.15;;;;;;;4.52;100.00;101706.34;4979582;28;20491;-89
2023/12/14 09:16:45;;;;;;;9.38;5.13;;;;;;;4.52;100.00;101719.22;4975806;28;20049;-91
2023/12/14 09:19:11;;;;;;;8.98;5.10;;;;;;;4.54;100.00;101720.13;4985981;28;20057;-91
2023/12/14 09:21:36;;;;;;;9.87;5.77;;;;;;;4.52;100.00;101733.00;4977830;28;20102;-90
2023/12/14 09:24:01;;;;;;;8.57;5.20;;;;;;;4.52;100.00;101742.44;4961400;28;20045;-91
2023/12/14 09:26:27;;;;;;;11.65;5.53;;;;;;;4.52;100.00;101747.56;4984834;28;20031;-91
2023/12/14 09:28:52;;;;;;;9.80;5.60;;;;;;;4.52;100.00;101750.16;4973087;28;20027;-91
2023/12/14 09:31:18;;;;;;;9.73;5.43;;;;;;;4.52;100.00;101752.72;4978274;28;20031;-91
2023/12/14 09:33:43;;;;;;;9.38;4.97;;;;;;;4.52;100.00;101760.47;4983144;28;20065;-91
2023/12/14 09:36:08;;;;;;;8.77;5.17;;;;;;;4.52;100.00;101771.66;4986875;28;20050;-91
2023/12/14 09:38:34;;;;;;;8.50;4.95;;;;;;;4.52;100.00;101768.19;4955962;28;20052;-91
2023/12/14 09:41:00;;;;;;;8.60;5.10;;;;;;;4.51;100.00;101766.47;4968822;28;20389;-91
2023/12/14 09:43:25;;;;;;;9.75;5.10;;;;;;;4.52;100.00;101778.50;4981202;28;20026;-89
2023/12/14 09:45:51;;;;;;;9.20;5.30;;;;;;;4.51;100.00;101771.63;4982175;28;20483;-92
2023/12/14 09:48:17;;;;;;;8.80;5.20;;;;;;;4.52;100.00;101774.22;4980208;28;20050;-91
2023/12/14 09:50:43;;;;;;;9.13;5.30;;;;;;;4.52;100.00;101769.06;4980077;28;20494;-91
2023/12/14 09:53:08;;;;;;;8.80;5.43;;;;;;;4.51;100.00;101782.81;4980070;28;20030;-91
2023/12/14 09:55:34;;;;;;;8.30;5.50;;;;;;;4.53;100.00;101793.13;4971656;28;20101;-90
2023/12/14 09:58:02;;;;;;;10.03;5.60;;;;;;;4.52;100.00;101789.69;4975856;28;20399;-92
2023/12/14 10:00:40;;;;;;;9.07;4.82;;;;;;;4.54;100.00;101800.84;4954218;28;20029;-91
2023/12/14 10:03:35;;;;;;;9.95;5.18;;;;;;;4.53;100.00;101812.00;4975434;28;20060;-92
2023/12/14 10:06:01;;;;;;;9.55;5.00;;;;;;;4.53;100.00;101817.16;4979206;28;20038;-90
2023/12/14 10:08:27;;;;;;;9.00;4.97;;;;;;;4.54;100.00;101818.91;4966381;28;20053;-90
2023/12/14 10:10:55;;;;;;;10.45;5.60;;;;;;;4.52;100.00;101825.78;4972069;28;20426;-91
2023/12/14 10:13:35;;;;;;;9.17;5.50;;;;;;;4.54;100.00;101828.34;4977651;28;20088;-90
2023/12/14 10:16:00;;;;;;;9.23;5.17;;;;;;;4.53;100.00;101829.19;4961943;28;20177;-90
2023/12/14 10:18:26;;;;;;;9.10;5.27;;;;;;;4.55;100.00;101830.09;4963912;28;20117;-91
2023/12/14 10:20:51;;;;;;;11.40;5.33;;;;;;;4.58;100.00;101839.56;4985266;28;20110;-91
2023/12/14 10:23:17;;;;;;;9.10;5.47;;;;;;;4.58;100.00;101840.44;4978947;28;20114;-92
2023/12/14 10:25:43;;;;;;;10.15;5.70;;;;;;;4.59;100.00;101846.47;4967531;28;20418;-92
2023/12/14 10:28:12;;;;;;;9.47;5.30;;;;;;;4.59;100.00;101849.91;4979278;28;20114;-94
2023/12/14 10:30:37;;;;;;;9.80;5.60;;;;;;;4.58;100.00;101848.19;4985926;28;20038;-92
2023/12/14 10:33:05;;;;;;;9.43;5.43;;;;;;;4.57;100.00;101859.34;4967658;28;20035;-93
2023/12/14 10:35:33;;;;;;;9.48;5.50;;;;;;;4.55;100.00;101858.44;4979162;28;20485;-94
2023/12/14 10:38:04;;;;;;;9.77;5.50;;;;;;;4.56;100.00;101862.75;4987397;28;20124;-93
2023/12/14 10:40:30;;;;;;;9.80;5.75;;;;;;;4.58;100.00;101861.06;4987123;28;20474;-92
2023/12/14 10:42:59;;;;;;;10.03;5.77;;;;;;;4.58;100.00;101863.66;4991774;28;20462;-91
2023/12/14 10:45:29;;;;;;;8.87;5.40;;;;;;;4.61;100.00;101863.66;4970628;28;20072;-93
2023/12/14 10:47:56;;;;;;;9.00;5.10;;;;;;;4.64;100.00;101862.88;4984967;28;20439;-93
2023/12/14 10:50:22;;;;;;;8.38;5.43;;;;;;;4.65;100.00;101862.88;4982923;28;20046;-93
2023/12/14 10:52:47;;;;;;;9.57;5.23;;;;;;;4.65;100.00;101860.31;4985908;28;20026;-92
2023/12/14 10:55:43;;;;;;;8.07;4.93;;;;;;;4.69;100.00;101854.34;4987205;28;20023;-94
2023/12/14 10:58:09;;;;;;;7.83;4.67;;;;;;;4.73;100.00;101860.41;4973399;28;20050;-94
2023/12/14 11:00:38;;;;;;;7.90;4.63;;;;;;;4.76;100.00;101857.03;4991336;28;20034;-96
2023/12/14 11:03:05;;;;;;;9.25;5.30;;;;;;;4.74;100.00;101862.16;4982394;28;20030;-91
2023/12/14 11:05:33;;;;;;;9.30;4.93;;;;;;;4.71;100.00;101875.88;4986485;28;20049;-94
2023/12/14 11:08:09;;;;;;;9.97;5.20;;;;;;;4.75;100.00;101878.50;4976370;28;20034;-96
2023/12/14 11:10:41;;;;;;;10.23;6.10;;;;;;;4.66;100.00;101876.66;4983482;28;20026;-96
2023/12/14 11:13:14;;;;;;;10.07;5.63;;;;;;;4.59;100.00;101885.13;4988842;28;20053;-94